sensor_id;sensor_type;location;lat;lon;timestamp;temperature;humidity
10431;DHT22;5262;59.958;17.726;2023-09-19T00:00:23;14.60;99.90
10431;DHT22;5262;59.958;17.726;2023-09-19T00:02:53;14.70;99.90
10431;DHT22;5262;59.958;17.726;2023-09-19T00:05:19;14.70;99.90
10431;DHT22;5262;59.958;17.726;2023-09-19T00:07:50;14.70;99.90
10431;DHT22;5262;59.958;17.726;2023-09-19T00:10:16;14.70;99.90
10431;DHT22;5262;59.958;17.726;2023-09-19T00:12:45;14.70;99.90
10431;DHT22;5262;59.958;17.726;2023-09-19T00:15:11;14.70;99.90
10431;DHT22;5262;59.958;17.726;2023-09-19T00:17:37;14.80;99.90
10431;DHT22;5262;59.958;17.726;2023-09-19T00:20:03;14.80;99.90
10431;DHT22;5262;59.958;17.726;2023-09-19T00:22:33;14.80;99.90
10431;DHT22;5262;59.958;17.726;2023-09-19T00:24:58;14.70;99.90
10431;DHT22;5262;59.958;17.726;2023-09-19T00:27:24;14.70;99.90
10431;DHT22;5262;59.958;17.726;2023-09-19T00:29:50;14.80;99.90
10431;DHT22;5262;59.958;17.726;2023-09-19T00:32:15;14.80;99.90
10431;DHT22;5262;59.958;17.726;2023-09-19T00:34:41;14.80;99.90
10431;DHT22;5262;59.958;17.726;2023-09-19T00:37:08;14.80;99.90
10431;DHT22;5262;59.958;17.726;2023-09-19T00:39:33;14.90;99.90
10431;DHT22;5262;59.958;17.726;2023-09-19T00:41:59;14.80;99.90
10431;DHT22;5262;59.958;17.726;2023-09-19T00:44:30;14.80;99.90
10431;DHT22;5262;59.958;17.726;2023-09-19T00:46:55;14.90;99.90
10431;DHT22;5262;59.958;17.726;2023-09-19T00:49:21;14.90;99.90
10431;DHT22;5262;59.958;17.726;2023-09-19T00:51:48;14.90;99.90
10431;DHT22;5262;59.958;17.726;2023-09-19T00:54:15;14.90;99.90
10431;DHT22;5262;59.958;17.726;2023-09-19T00:56:44;14.90;99.90
10431;DHT22;5262;59.958;17.726;2023-09-19T00:59:13;15.00;99.90
10431;DHT22;5262;59.958;17.726;2023-09-19T01:01:39;15.00;99.90
10431;DHT22;5262;59.958;17.726;2023-09-19T01:04:06;15.10;99.90
10431;DHT22;5262;59.958;17.726;2023-09-19T01:06:32;15.00;99.90
10431;DHT22;5262;59.958;17.726;2023-09-19T01:08:57;15.00;99.90
10431;DHT22;5262;59.958;17.726;2023-09-19T01:11:37;15.10;99.90
10431;DHT22;5262;59.958;17.726;2023-09-19T01:17:29;15.10;99.90
10431;DHT22;5262;59.958;17.726;2023-09-19T01:20:16;15.00;99.90
10431;DHT22;5262;59.958;17.726;2023-09-19T01:28:35;15.00;99.90
10431;DHT22;5262;59.958;17.726;2023-09-19T01:31:10;15.10;99.90
10431;DHT22;5262;59.958;17.726;2023-09-19T01:34:09;15.10;99.90
10431;DHT22;5262;59.958;17.726;2023-09-19T01:36:36;15.10;99.90
10431;DHT22;5262;59.958;17.726;2023-09-19T01:39:13;15.10;99.90
10431;DHT22;5262;59.958;17.726;2023-09-19T01:42:02;15.20;99.90
10431;DHT22;5262;59.958;17.726;2023-09-19T01:44:51;15.10;99.90
10431;DHT22;5262;59.958;17.726;2023-09-19T01:47:37;15.10;99.90
10431;DHT22;5262;59.958;17.726;2023-09-19T01:53:13;15.20;99.90
10431;DHT22;5262;59.958;17.726;2023-09-19T01:55:48;15.20;99.90
10431;DHT22;5262;59.958;17.726;2023-09-19T02:00:56;15.20;99.90
10431;DHT22;5262;59.958;17.726;2023-09-19T02:03:24;15.30;99.90
10431;DHT22;5262;59.958;17.726;2023-09-19T02:05:51;15.20;99.90
10431;DHT22;5262;59.958;17.726;2023-09-19T02:08:19;15.30;99.90
10431;DHT22;5262;59.958;17.726;2023-09-19T02:10:46;15.30;99.90
10431;DHT22;5262;59.958;17.726;2023-09-19T02:13:16;15.30;99.90
10431;DHT22;5262;59.958;17.726;2023-09-19T02:15:42;15.30;99.90
10431;DHT22;5262;59.958;17.726;2023-09-19T02:18:10;15.30;99.90
10431;DHT22;5262;59.958;17.726;2023-09-19T02:20:35;15.30;99.90
10431;DHT22;5262;59.958;17.726;2023-09-19T02:23:01;15.40;99.90
10431;DHT22;5262;59.958;17.726;2023-09-19T02:25:28;15.40;99.90
10431;DHT22;5262;59.958;17.726;2023-09-19T02:27:53;15.40;99.90
10431;DHT22;5262;59.958;17.726;2023-09-19T02:30:24;15.40;99.90
10431;DHT22;5262;59.958;17.726;2023-09-19T02:32:51;15.40;99.90
10431;DHT22;5262;59.958;17.726;2023-09-19T02:35:17;15.40;99.90
10431;DHT22;5262;59.958;17.726;2023-09-19T02:37:45;15.50;99.90
10431;DHT22;5262;59.958;17.726;2023-09-19T02:40:11;15.50;99.90
10431;DHT22;5262;59.958;17.726;2023-09-19T02:42:53;15.50;99.90
10431;DHT22;5262;59.958;17.726;2023-09-19T02:45:20;15.50;99.90
10431;DHT22;5262;59.958;17.726;2023-09-19T02:47:49;15.50;99.90
10431;DHT22;5262;59.958;17.726;2023-09-19T02:50:15;15.50;99.90
10431;DHT22;5262;59.958;17.726;2023-09-19T02:52:42;15.50;99.90
10431;DHT22;5262;59.958;17.726;2023-09-19T02:55:09;15.60;99.90
10431;DHT22;5262;59.958;17.726;2023-09-19T02:57:36;15.50;99.90
10431;DHT22;5262;59.958;17.726;2023-09-19T03:00:09;15.60;99.90
10431;DHT22;5262;59.958;17.726;2023-09-19T03:02:36;15.60;99.90
10431;DHT22;5262;59.958;17.726;2023-09-19T03:05:03;15.50;99.90
10431;DHT22;5262;59.958;17.726;2023-09-19T03:07:29;15.50;99.90
10431;DHT22;5262;59.958;17.726;2023-09-19T03:09:54;15.60;99.90
10431;DHT22;5262;59.958;17.726;2023-09-19T03:12:20;15.60;99.90
10431;DHT22;5262;59.958;17.726;2023-09-19T03:14:46;15.60;99.90
10431;DHT22;5262;59.958;17.726;2023-09-19T03:17:11;15.60;99.90
10431;DHT22;5262;59.958;17.726;2023-09-19T03:19:39;15.60;99.90
10431;DHT22;5262;59.958;17.726;2023-09-19T03:22:06;15.70;99.90
10431;DHT22;5262;59.958;17.726;2023-09-19T03:24:31;15.70;99.90
10431;DHT22;5262;59.958;17.726;2023-09-19T03:26:58;15.70;99.90
10431;DHT22;5262;59.958;17.726;2023-09-19T03:29:24;15.70;99.90
10431;DHT22;5262;59.958;17.726;2023-09-19T03:31:50;15.70;99.90
10431;DHT22;5262;59.958;17.726;2023-09-19T03:34:16;15.80;99.90
10431;DHT22;5262;59.958;17.726;2023-09-19T03:36:42;15.80;99.90
10431;DHT22;5262;59.958;17.726;2023-09-19T03:39:08;15.80;99.90
10431;DHT22;5262;59.958;17.726;2023-09-19T03:41:33;15.80;99.90
10431;DHT22;5262;59.958;17.726;2023-09-19T03:44:01;15.80;99.90
10431;DHT22;5262;59.958;17.726;2023-09-19T03:46:28;15.80;99.90
10431;DHT22;5262;59.958;17.726;2023-09-19T03:48:53;15.80;99.90
10431;DHT22;5262;59.958;17.726;2023-09-19T03:51:20;15.90;99.90
10431;DHT22;5262;59.958;17.726;2023-09-19T03:53:46;15.90;99.90
10431;DHT22;5262;59.958;17.726;2023-09-19T03:56:12;15.90;99.90
10431;DHT22;5262;59.958;17.726;2023-09-19T03:58:37;15.90;99.90
10431;DHT22;5262;59.958;17.726;2023-09-19T04:01:05;15.90;99.90
10431;DHT22;5262;59.958;17.726;2023-09-19T04:03:33;16.00;99.90
10431;DHT22;5262;59.958;17.726;2023-09-19T04:06:15;16.00;99.90
10431;DHT22;5262;59.958;17.726;2023-09-19T04:08:41;16.00;99.90
10431;DHT22;5262;59.958;17.726;2023-09-19T04:11:07;16.00;99.90
10431;DHT22;5262;59.958;17.726;2023-09-19T04:13:33;16.00;99.90
10431;DHT22;5262;59.958;17.726;2023-09-19T04:15:58;16.00;99.90
10431;DHT22;5262;59.958;17.726;2023-09-19T04:18:24;16.00;99.90
10431;DHT22;5262;59.958;17.726;2023-09-19T04:20:50;16.10;99.90
10431;DHT22;5262;59.958;17.726;2023-09-19T04:23:16;16.10;99.90
10431;DHT22;5262;59.958;17.726;2023-09-19T04:25:51;16.10;99.90
10431;DHT22;5262;59.958;17.726;2023-09-19T04:28:16;16.20;99.90
10431;DHT22;5262;59.958;17.726;2023-09-19T04:30:42;16.10;99.90
10431;DHT22;5262;59.958;17.726;2023-09-19T04:33:08;16.20;99.90
10431;DHT22;5262;59.958;17.726;2023-09-19T04:35:34;16.20;99.90
10431;DHT22;5262;59.958;17.726;2023-09-19T04:38:00;16.20;99.90
10431;DHT22;5262;59.958;17.726;2023-09-19T04:40:26;16.30;99.90
10431;DHT22;5262;59.958;17.726;2023-09-19T04:42:56;16.30;99.90
10431;DHT22;5262;59.958;17.726;2023-09-19T04:45:26;16.30;99.90
10431;DHT22;5262;59.958;17.726;2023-09-19T04:47:52;16.30;99.90
10431;DHT22;5262;59.958;17.726;2023-09-19T04:50:19;16.30;99.90
10431;DHT22;5262;59.958;17.726;2023-09-19T04:52:49;16.30;99.90
10431;DHT22;5262;59.958;17.726;2023-09-19T04:55:17;16.30;99.90
10431;DHT22;5262;59.958;17.726;2023-09-19T04:57:50;16.30;99.90
10431;DHT22;5262;59.958;17.726;2023-09-19T05:00:17;16.40;99.90
10431;DHT22;5262;59.958;17.726;2023-09-19T05:02:49;16.40;99.90
10431;DHT22;5262;59.958;17.726;2023-09-19T05:05:14;16.40;99.90
10431;DHT22;5262;59.958;17.726;2023-09-19T05:07:42;16.40;99.90
10431;DHT22;5262;59.958;17.726;2023-09-19T05:10:08;16.40;99.90
10431;DHT22;5262;59.958;17.726;2023-09-19T05:12:34;16.50;99.90
10431;DHT22;5262;59.958;17.726;2023-09-19T05:15:04;16.50;99.90
10431;DHT22;5262;59.958;17.726;2023-09-19T05:17:30;16.50;99.90
10431;DHT22;5262;59.958;17.726;2023-09-19T05:19:57;16.50;99.90
10431;DHT22;5262;59.958;17.726;2023-09-19T05:22:23;16.50;99.90
10431;DHT22;5262;59.958;17.726;2023-09-19T05:24:50;16.60;99.90
10431;DHT22;5262;59.958;17.726;2023-09-19T05:27:16;16.60;99.90
10431;DHT22;5262;59.958;17.726;2023-09-19T05:29:45;16.60;99.90
10431;DHT22;5262;59.958;17.726;2023-09-19T05:32:11;16.60;99.90
10431;DHT22;5262;59.958;17.726;2023-09-19T05:34:38;16.60;99.90
10431;DHT22;5262;59.958;17.726;2023-09-19T05:37:04;16.60;99.90
10431;DHT22;5262;59.958;17.726;2023-09-19T05:39:33;16.60;99.90
10431;DHT22;5262;59.958;17.726;2023-09-19T05:41:58;16.70;99.90
10431;DHT22;5262;59.958;17.726;2023-09-19T05:44:25;16.70;99.90
10431;DHT22;5262;59.958;17.726;2023-09-19T05:46:51;16.70;99.90
10431;DHT22;5262;59.958;17.726;2023-09-19T05:49:17;16.70;99.90
10431;DHT22;5262;59.958;17.726;2023-09-19T05:51:43;16.70;99.90
10431;DHT22;5262;59.958;17.726;2023-09-19T05:54:09;16.70;99.90
10431;DHT22;5262;59.958;17.726;2023-09-19T05:56:36;16.80;99.90
10431;DHT22;5262;59.958;17.726;2023-09-19T05:59:02;16.80;99.90
10431;DHT22;5262;59.958;17.726;2023-09-19T06:01:29;16.80;99.90
10431;DHT22;5262;59.958;17.726;2023-09-19T06:03:57;16.80;99.90
10431;DHT22;5262;59.958;17.726;2023-09-19T06:06:22;16.90;99.90
10431;DHT22;5262;59.958;17.726;2023-09-19T06:08:49;16.90;99.90
10431;DHT22;5262;59.958;17.726;2023-09-19T06:11:16;16.90;99.90
10431;DHT22;5262;59.958;17.726;2023-09-19T06:13:41;16.90;99.90
10431;DHT22;5262;59.958;17.726;2023-09-19T06:16:07;16.90;99.90
10431;DHT22;5262;59.958;17.726;2023-09-19T06:18:35;16.90;99.90
10431;DHT22;5262;59.958;17.726;2023-09-19T06:21:00;17.00;99.90
10431;DHT22;5262;59.958;17.726;2023-09-19T06:23:30;17.00;99.90
10431;DHT22;5262;59.958;17.726;2023-09-19T06:25:56;17.00;99.90
10431;DHT22;5262;59.958;17.726;2023-09-19T06:28:23;17.00;99.90
10431;DHT22;5262;59.958;17.726;2023-09-19T06:30:50;17.10;99.90
10431;DHT22;5262;59.958;17.726;2023-09-19T06:33:16;17.10;99.90
10431;DHT22;5262;59.958;17.726;2023-09-19T06:35:43;17.10;99.90
10431;DHT22;5262;59.958;17.726;2023-09-19T06:38:10;17.20;99.90
10431;DHT22;5262;59.958;17.726;2023-09-19T06:40:36;17.20;99.90
10431;DHT22;5262;59.958;17.726;2023-09-19T06:43:03;17.20;99.90
10431;DHT22;5262;59.958;17.726;2023-09-19T06:45:30;17.30;99.90
10431;DHT22;5262;59.958;17.726;2023-09-19T06:47:57;17.30;99.90
10431;DHT22;5262;59.958;17.726;2023-09-19T06:50:23;17.30;99.90
10431;DHT22;5262;59.958;17.726;2023-09-19T06:52:50;17.30;99.90
10431;DHT22;5262;59.958;17.726;2023-09-19T06:55:17;17.40;99.90
10431;DHT22;5262;59.958;17.726;2023-09-19T06:57:45;17.30;99.90
10431;DHT22;5262;59.958;17.726;2023-09-19T07:00:12;17.30;99.90
10431;DHT22;5262;59.958;17.726;2023-09-19T07:03:02;17.30;99.90
10431;DHT22;5262;59.958;17.726;2023-09-19T07:05:31;17.30;99.90
10431;DHT22;5262;59.958;17.726;2023-09-19T07:07:58;17.30;99.90
10431;DHT22;5262;59.958;17.726;2023-09-19T07:10:25;17.30;99.90
10431;DHT22;5262;59.958;17.726;2023-09-19T07:13:06;17.30;99.90
10431;DHT22;5262;59.958;17.726;2023-09-19T07:15:34;17.40;99.90
10431;DHT22;5262;59.958;17.726;2023-09-19T07:18:14;17.40;99.90
10431;DHT22;5262;59.958;17.726;2023-09-19T07:20:42;17.40;99.90
10431;DHT22;5262;59.958;17.726;2023-09-19T07:23:21;17.40;99.90
10431;DHT22;5262;59.958;17.726;2023-09-19T07:25:49;17.40;99.90
10431;DHT22;5262;59.958;17.726;2023-09-19T07:28:15;17.40;99.90
10431;DHT22;5262;59.958;17.726;2023-09-19T07:30:41;17.50;99.90
10431;DHT22;5262;59.958;17.726;2023-09-19T07:33:07;17.50;99.90
10431;DHT22;5262;59.958;17.726;2023-09-19T07:35:34;17.50;99.90
10431;DHT22;5262;59.958;17.726;2023-09-19T07:37:59;17.60;99.90
10431;DHT22;5262;59.958;17.726;2023-09-19T07:40:27;17.60;99.90
10431;DHT22;5262;59.958;17.726;2023-09-19T07:42:55;17.60;99.90
10431;DHT22;5262;59.958;17.726;2023-09-19T07:45:20;17.70;99.90
10431;DHT22;5262;59.958;17.726;2023-09-19T07:47:50;17.70;99.90
10431;DHT22;5262;59.958;17.726;2023-09-19T07:50:18;17.80;99.90
10431;DHT22;5262;59.958;17.726;2023-09-19T07:52:44;17.80;99.90
10431;DHT22;5262;59.958;17.726;2023-09-19T07:55:10;17.70;99.90
10431;DHT22;5262;59.958;17.726;2023-09-19T07:57:43;17.80;99.90
10431;DHT22;5262;59.958;17.726;2023-09-19T08:00:09;17.80;99.90
10431;DHT22;5262;59.958;17.726;2023-09-19T08:02:36;17.90;99.90
10431;DHT22;5262;59.958;17.726;2023-09-19T08:05:04;17.90;99.90
10431;DHT22;5262;59.958;17.726;2023-09-19T08:07:41;18.00;99.90
10431;DHT22;5262;59.958;17.726;2023-09-19T08:10:08;17.90;99.90
10431;DHT22;5262;59.958;17.726;2023-09-19T08:12:42;17.90;99.90
10431;DHT22;5262;59.958;17.726;2023-09-19T08:15:19;17.80;99.90
10431;DHT22;5262;59.958;17.726;2023-09-19T08:17:45;17.80;99.90
10431;DHT22;5262;59.958;17.726;2023-09-19T08:20:12;17.80;99.90
10431;DHT22;5262;59.958;17.726;2023-09-19T08:22:48;17.90;99.90
10431;DHT22;5262;59.958;17.726;2023-09-19T08:25:17;17.80;99.90
10431;DHT22;5262;59.958;17.726;2023-09-19T08:27:44;17.80;99.90
10431;DHT22;5262;59.958;17.726;2023-09-19T08:30:17;17.90;99.90
10431;DHT22;5262;59.958;17.726;2023-09-19T08:32:43;17.90;99.90
10431;DHT22;5262;59.958;17.726;2023-09-19T08:35:12;17.90;99.90
10431;DHT22;5262;59.958;17.726;2023-09-19T08:37:38;17.90;99.90
10431;DHT22;5262;59.958;17.726;2023-09-19T08:40:04;17.90;99.90
10431;DHT22;5262;59.958;17.726;2023-09-19T08:42:31;18.00;99.90
10431;DHT22;5262;59.958;17.726;2023-09-19T08:44:58;18.00;99.90
10431;DHT22;5262;59.958;17.726;2023-09-19T08:47:34;18.10;99.90
10431;DHT22;5262;59.958;17.726;2023-09-19T08:50:33;18.10;99.90
10431;DHT22;5262;59.958;17.726;2023-09-19T08:53:10;18.10;99.90
10431;DHT22;5262;59.958;17.726;2023-09-19T08:55:36;18.00;99.90
10431;DHT22;5262;59.958;17.726;2023-09-19T08:58:10;18.10;99.90
10431;DHT22;5262;59.958;17.726;2023-09-19T09:00:36;18.10;99.90
10431;DHT22;5262;59.958;17.726;2023-09-19T09:03:03;18.10;99.90
10431;DHT22;5262;59.958;17.726;2023-09-19T09:05:32;18.20;99.90
10431;DHT22;5262;59.958;17.726;2023-09-19T09:08:02;18.30;99.90
10431;DHT22;5262;59.958;17.726;2023-09-19T09:10:29;18.40;99.90
10431;DHT22;5262;59.958;17.726;2023-09-19T09:12:55;18.50;99.90
10431;DHT22;5262;59.958;17.726;2023-09-19T09:15:22;18.50;99.90
10431;DHT22;5262;59.958;17.726;2023-09-19T09:17:52;18.70;99.90
10431;DHT22;5262;59.958;17.726;2023-09-19T09:20:21;19.00;99.90
10431;DHT22;5262;59.958;17.726;2023-09-19T09:22:54;19.10;99.90
10431;DHT22;5262;59.958;17.726;2023-09-19T09:25:21;19.30;99.90
10431;DHT22;5262;59.958;17.726;2023-09-19T09:27:59;19.30;99.90
10431;DHT22;5262;59.958;17.726;2023-09-19T09:30:34;19.30;99.90
10431;DHT22;5262;59.958;17.726;2023-09-19T09:33:13;19.40;99.90
10431;DHT22;5262;59.958;17.726;2023-09-19T09:36:00;19.50;99.90
10431;DHT22;5262;59.958;17.726;2023-09-19T09:38:49;19.30;99.90
10431;DHT22;5262;59.958;17.726;2023-09-19T09:41:15;19.20;99.90
10431;DHT22;5262;59.958;17.726;2023-09-19T09:43:53;19.10;99.90
10431;DHT22;5262;59.958;17.726;2023-09-19T09:46:20;19.00;99.90
10431;DHT22;5262;59.958;17.726;2023-09-19T09:51:44;19.20;99.90
10431;DHT22;5262;59.958;17.726;2023-09-19T09:54:15;19.00;99.90
10431;DHT22;5262;59.958;17.726;2023-09-19T09:56:55;19.00;99.90
10431;DHT22;5262;59.958;17.726;2023-09-19T10:02:13;19.30;99.90
10431;DHT22;5262;59.958;17.726;2023-09-19T10:04:39;19.40;99.90
10431;DHT22;5262;59.958;17.726;2023-09-19T10:07:26;19.70;99.90
10431;DHT22;5262;59.958;17.726;2023-09-19T10:10:05;19.60;99.90
10431;DHT22;5262;59.958;17.726;2023-09-19T10:12:47;19.70;99.90
10431;DHT22;5262;59.958;17.726;2023-09-19T10:15:15;19.70;99.90
10431;DHT22;5262;59.958;17.726;2023-09-19T10:17:44;19.50;99.90
10431;DHT22;5262;59.958;17.726;2023-09-19T10:20:21;19.40;99.90
10431;DHT22;5262;59.958;17.726;2023-09-19T10:23:13;19.40;99.90
10431;DHT22;5262;59.958;17.726;2023-09-19T10:25:40;19.20;99.90
10431;DHT22;5262;59.958;17.726;2023-09-19T10:28:08;19.30;99.90
10431;DHT22;5262;59.958;17.726;2023-09-19T10:30:48;19.50;99.90
10431;DHT22;5262;59.958;17.726;2023-09-19T10:33:19;20.00;99.90
10431;DHT22;5262;59.958;17.726;2023-09-19T10:35:49;20.30;99.90
10431;DHT22;5262;59.958;17.726;2023-09-19T10:38:23;20.40;99.90
10431;DHT22;5262;59.958;17.726;2023-09-19T10:40:52;20.80;99.90
10431;DHT22;5262;59.958;17.726;2023-09-19T10:43:21;20.90;99.90
10431;DHT22;5262;59.958;17.726;2023-09-19T10:45:48;20.80;99.90
10431;DHT22;5262;59.958;17.726;2023-09-19T10:48:20;20.70;99.90
10431;DHT22;5262;59.958;17.726;2023-09-19T10:53:27;20.60;99.90
10431;DHT22;5262;59.958;17.726;2023-09-19T10:55:58;20.60;99.90
10431;DHT22;5262;59.958;17.726;2023-09-19T10:58:32;20.40;99.90
10431;DHT22;5262;59.958;17.726;2023-09-19T11:01:00;20.20;99.90
10431;DHT22;5262;59.958;17.726;2023-09-19T11:03:32;20.20;99.90
10431;DHT22;5262;59.958;17.726;2023-09-19T11:06:14;21.40;99.90
10431;DHT22;5262;59.958;17.726;2023-09-19T11:11:43;21.60;99.90
10431;DHT22;5262;59.958;17.726;2023-09-19T11:30:32;18.90;99.90
10431;DHT22;5262;59.958;17.726;2023-09-19T11:33:21;18.50;99.90
10431;DHT22;5262;59.958;17.726;2023-09-19T11:36:07;18.50;99.90
10431;DHT22;5262;59.958;17.726;2023-09-19T11:43:51;23.30;99.90
10431;DHT22;5262;59.958;17.726;2023-09-19T11:46:18;23.90;99.90
10431;DHT22;5262;59.958;17.726;2023-09-19T11:48:50;23.70;99.90
10431;DHT22;5262;59.958;17.726;2023-09-19T11:51:20;23.00;99.90
10431;DHT22;5262;59.958;17.726;2023-09-19T11:54:01;23.20;99.90
10431;DHT22;5262;59.958;17.726;2023-09-19T11:56:29;23.20;99.90
10431;DHT22;5262;59.958;17.726;2023-09-19T11:58:57;22.20;99.90
10431;DHT22;5262;59.958;17.726;2023-09-19T12:03:56;22.90;99.90
10431;DHT22;5262;59.958;17.726;2023-09-19T12:06:26;23.60;99.90
10431;DHT22;5262;59.958;17.726;2023-09-19T12:08:52;22.20;99.90
10431;DHT22;5262;59.958;17.726;2023-09-19T12:11:20;21.20;99.90
10431;DHT22;5262;59.958;17.726;2023-09-19T12:13:47;21.00;99.90
10431;DHT22;5262;59.958;17.726;2023-09-19T12:16:20;20.60;99.90
10431;DHT22;5262;59.958;17.726;2023-09-19T12:18:48;20.30;99.90
10431;DHT22;5262;59.958;17.726;2023-09-19T12:21:31;20.20;99.90
10431;DHT22;5262;59.958;17.726;2023-09-19T12:24:11;20.00;99.90
10431;DHT22;5262;59.958;17.726;2023-09-19T12:26:40;20.30;99.90
10431;DHT22;5262;59.958;17.726;2023-09-19T12:29:11;20.20;99.90
10431;DHT22;5262;59.958;17.726;2023-09-19T12:31:56;19.90;99.90
10431;DHT22;5262;59.958;17.726;2023-09-19T12:34:30;19.40;99.90
10431;DHT22;5262;59.958;17.726;2023-09-19T12:37:13;19.30;99.90
10431;DHT22;5262;59.958;17.726;2023-09-19T12:39:52;19.20;99.90
10431;DHT22;5262;59.958;17.726;2023-09-19T12:42:24;19.10;99.90
10431;DHT22;5262;59.958;17.726;2023-09-19T12:44:55;19.10;99.90
10431;DHT22;5262;59.958;17.726;2023-09-19T12:47:24;19.20;99.90
10431;DHT22;5262;59.958;17.726;2023-09-19T12:50:12;19.40;99.90
10431;DHT22;5262;59.958;17.726;2023-09-19T12:52:49;19.70;99.90
10431;DHT22;5262;59.958;17.726;2023-09-19T12:55:25;19.50;99.90
10431;DHT22;5262;59.958;17.726;2023-09-19T12:58:14;19.80;99.90
10431;DHT22;5262;59.958;17.726;2023-09-19T13:00:45;19.90;99.90
10431;DHT22;5262;59.958;17.726;2023-09-19T13:03:12;20.00;99.90
10431;DHT22;5262;59.958;17.726;2023-09-19T13:05:59;20.00;99.90
10431;DHT22;5262;59.958;17.726;2023-09-19T13:08:27;19.90;97.80
10431;DHT22;5262;59.958;17.726;2023-09-19T13:11:07;19.60;97.80
10431;DHT22;5262;59.958;17.726;2023-09-19T13:16:07;18.90;98.90
10431;DHT22;5262;59.958;17.726;2023-09-19T13:18:54;18.80;99.30
10431;DHT22;5262;59.958;17.726;2023-09-19T13:23:55;18.80;99.30
10431;DHT22;5262;59.958;17.726;2023-09-19T13:26:28;18.80;99.40
10431;DHT22;5262;59.958;17.726;2023-09-19T13:28:56;18.70;99.90
10431;DHT22;5262;59.958;17.726;2023-09-19T13:31:22;18.70;98.30
10431;DHT22;5262;59.958;17.726;2023-09-19T13:33:49;18.90;97.80
10431;DHT22;5262;59.958;17.726;2023-09-19T13:36:15;18.80;96.80
10431;DHT22;5262;59.958;17.726;2023-09-19T13:38:41;18.90;96.60
10431;DHT22;5262;59.958;17.726;2023-09-19T13:41:10;18.70;96.50
10431;DHT22;5262;59.958;17.726;2023-09-19T13:43:37;18.80;95.80
10431;DHT22;5262;59.958;17.726;2023-09-19T13:46:04;18.70;95.50
10431;DHT22;5262;59.958;17.726;2023-09-19T13:48:30;18.50;96.20
10431;DHT22;5262;59.958;17.726;2023-09-19T13:50:56;18.30;96.90
10431;DHT22;5262;59.958;17.726;2023-09-19T13:53:22;18.30;97.30
10431;DHT22;5262;59.958;17.726;2023-09-19T13:55:48;18.10;97.40
10431;DHT22;5262;59.958;17.726;2023-09-19T13:58:16;17.70;98.40
10431;DHT22;5262;59.958;17.726;2023-09-19T14:00:42;17.60;99.40
10431;DHT22;5262;59.958;17.726;2023-09-19T14:03:08;17.40;99.30
10431;DHT22;5262;59.958;17.726;2023-09-19T14:05:36;17.40;99.90
10431;DHT22;5262;59.958;17.726;2023-09-19T14:08:01;17.20;99.90
10431;DHT22;5262;59.958;17.726;2023-09-19T14:10:28;16.90;99.90
10431;DHT22;5262;59.958;17.726;2023-09-19T14:12:56;16.40;99.90
10431;DHT22;5262;59.958;17.726;2023-09-19T14:15:25;16.00;99.90
10431;DHT22;5262;59.958;17.726;2023-09-19T14:17:58;15.60;99.90
10431;DHT22;5262;59.958;17.726;2023-09-19T14:20:25;15.40;99.90
10431;DHT22;5262;59.958;17.726;2023-09-19T14:22:53;15.30;99.90
10431;DHT22;5262;59.958;17.726;2023-09-19T14:25:18;15.00;99.90
10431;DHT22;5262;59.958;17.726;2023-09-19T14:27:44;15.00;99.90
10431;DHT22;5262;59.958;17.726;2023-09-19T14:30:10;14.80;99.90
10431;DHT22;5262;59.958;17.726;2023-09-19T14:32:36;14.90;99.90
10431;DHT22;5262;59.958;17.726;2023-09-19T14:35:02;14.80;99.90
10431;DHT22;5262;59.958;17.726;2023-09-19T14:37:28;14.90;99.90
10431;DHT22;5262;59.958;17.726;2023-09-19T14:39:54;14.90;99.90
10431;DHT22;5262;59.958;17.726;2023-09-19T14:42:20;14.90;99.90
10431;DHT22;5262;59.958;17.726;2023-09-19T14:44:45;14.90;99.90
10431;DHT22;5262;59.958;17.726;2023-09-19T14:47:13;14.90;99.90
10431;DHT22;5262;59.958;17.726;2023-09-19T14:49:39;15.00;99.90
10431;DHT22;5262;59.958;17.726;2023-09-19T14:52:07;15.00;99.90
10431;DHT22;5262;59.958;17.726;2023-09-19T14:54:33;15.00;99.90
10431;DHT22;5262;59.958;17.726;2023-09-19T14:56:59;15.00;99.90
10431;DHT22;5262;59.958;17.726;2023-09-19T14:59:31;15.10;99.90
10431;DHT22;5262;59.958;17.726;2023-09-19T15:01:57;15.20;99.90
10431;DHT22;5262;59.958;17.726;2023-09-19T15:04:24;15.20;99.90
10431;DHT22;5262;59.958;17.726;2023-09-19T15:06:49;15.30;99.90
10431;DHT22;5262;59.958;17.726;2023-09-19T15:09:16;15.20;99.90
10431;DHT22;5262;59.958;17.726;2023-09-19T15:11:44;15.30;99.90
10431;DHT22;5262;59.958;17.726;2023-09-19T15:14:10;15.50;99.90
10431;DHT22;5262;59.958;17.726;2023-09-19T15:16:35;15.50;99.90
10431;DHT22;5262;59.958;17.726;2023-09-19T15:19:01;15.50;99.60
10431;DHT22;5262;59.958;17.726;2023-09-19T15:21:27;15.60;98.80
10431;DHT22;5262;59.958;17.726;2023-09-19T15:23:52;15.60;98.50
10431;DHT22;5262;59.958;17.726;2023-09-19T15:26:18;15.60;97.80
10431;DHT22;5262;59.958;17.726;2023-09-19T15:28:47;15.50;98.60
10431;DHT22;5262;59.958;17.726;2023-09-19T15:31:13;15.50;99.90
10431;DHT22;5262;59.958;17.726;2023-09-19T15:33:39;15.40;98.50
10431;DHT22;5262;59.958;17.726;2023-09-19T15:36:13;15.30;98.50
10431;DHT22;5262;59.958;17.726;2023-09-19T15:39:08;15.20;98.30
10431;DHT22;5262;59.958;17.726;2023-09-19T15:41:41;15.20;98.60
10431;DHT22;5262;59.958;17.726;2023-09-19T15:44:18;15.10;99.20
10431;DHT22;5262;59.958;17.726;2023-09-19T15:46:44;15.10;99.20
10431;DHT22;5262;59.958;17.726;2023-09-19T15:49:11;15.10;98.90
10431;DHT22;5262;59.958;17.726;2023-09-19T15:51:37;15.10;99.30
10431;DHT22;5262;59.958;17.726;2023-09-19T15:54:11;14.80;99.90
10431;DHT22;5262;59.958;17.726;2023-09-19T15:56:39;14.70;99.90
10431;DHT22;5262;59.958;17.726;2023-09-19T15:59:07;14.50;99.90
10431;DHT22;5262;59.958;17.726;2023-09-19T16:01:32;14.50;99.90
10431;DHT22;5262;59.958;17.726;2023-09-19T16:03:58;14.50;99.90
10431;DHT22;5262;59.958;17.726;2023-09-19T16:06:27;14.30;99.90
10431;DHT22;5262;59.958;17.726;2023-09-19T16:08:57;14.30;99.90
10431;DHT22;5262;59.958;17.726;2023-09-19T16:11:26;14.10;99.90
10431;DHT22;5262;59.958;17.726;2023-09-19T16:13:53;14.10;99.90
10431;DHT22;5262;59.958;17.726;2023-09-19T16:16:20;14.10;99.90
10431;DHT22;5262;59.958;17.726;2023-09-19T16:18:52;13.90;99.90
10431;DHT22;5262;59.958;17.726;2023-09-19T16:21:19;13.80;99.90
10431;DHT22;5262;59.958;17.726;2023-09-19T16:23:49;13.70;99.90
10431;DHT22;5262;59.958;17.726;2023-09-19T16:26:17;13.70;99.90
10431;DHT22;5262;59.958;17.726;2023-09-19T16:28:49;13.70;99.90
10431;DHT22;5262;59.958;17.726;2023-09-19T16:31:15;13.70;99.90
10431;DHT22;5262;59.958;17.726;2023-09-19T16:33:45;13.70;99.90
10431;DHT22;5262;59.958;17.726;2023-09-19T16:36:15;13.60;99.90
10431;DHT22;5262;59.958;17.726;2023-09-19T16:38:43;13.50;99.90